Etusivu
METAR-TAF:

METAR-TAF

Lentoasemat :

Esbjerg, Tanska

Leveyspiiri: 55-32N, Pituuspiiri: 008-34E, korkeus merenpinnasta: 30 m

Tämänhetkinen sää

Tämä raportti tehtiin 32 minuuttia sitten, kello 09.50 UTC
Tuuli 8 kn etelästä/kaakosta, vaihdellen idän/kaakon ja etelän/lounaan välillä
Lämpötila 7°C
Kosteus 87%
Ilmanpaine 1013 hPa
Näkyvyys: 8000 m

METAR: EKEB 170950Z AUTO 16008KT 120V200 8000 BKN014/// 07/05 Q1013

Aika: 11:22 (10:22 UTC)

Sääennuste

Tämä raportti tehtiin 1 tunti ja 54 minuuttia sitten, kello 08.28 UTC
Ennuste voimassa 17. päivästä klo 09 UTC - 17. päivään klo 18 UTC
Tuuli 10 kn etelästä/lounaasta
Näkyvyys 10 km tai enemmän
Hajonneita pilviä 3000 ft:n korkeudessa
Ajoittain
17. päivästä klo 09 UTC - 17. päivään klo 18 UTC
Hajonneita pilviä 1200 ft:n korkeudessa

TAF: EKEB 170828Z 1709/1718 20010KT 9999 BKN030 TEMPO 1709/1718 BKN012

Säähavainnot ja -ennusteet yli 4000 lentoasemalta (METAR- ja TAF-raportit).

Käytössä olevat sääasemat on merkitty karttaan keltaisilla ja punaisilla pisteillä.

Aseta hiiri pisteen päälle nähdäksesi sääaseman nimen.

Klikkaa sitten nähdäksesi säähavainnot ja -ennusteet.

Kartan vaihtaminen: klikkaa mustalla rastilla varustettuja vihreitä pisteitä, niin voit zoomata sisään; viivalla varustettua vihreää pistettä, niin voit zoomata ulos tai vihreitä nuolia, niin pääset viereisille kartoille.


METAR-TAF: